This is the latest recevied weather packets stored in our database for station/object XE2AD-3. If no packets are shown the sender has not sent any weather packets the latest 10 day(s).
| Time | Temp. | Humidity | Pressure | Rain* | Wind** | Luminosity | Snow |
|---|---|---|---|---|---|---|---|
| 1788152909 | 57° F | 88% | 601.6 mmHg | - | - | - | - |
| 1788151712 | 57° F | 87% | 601.3 mmHg | - | - | - | - |
| 1788150517 | 57° F | 86% | 601 mmHg | - | - | - | - |
| 1788149330 | 56° F | 85% | 600.9 mmHg | - | - | - | - |
| 1788148135 | 56° F | 84% | 600.8 mmHg | - | - | - | - |
| 1788146932 | 56° F | 82% | 600.7 mmHg | - | - | - | - |
| 1788145737 | 56° F | 82% | 600.5 mmHg | - | - | - | - |
| 1788144541 | 57° F | 80% | 600.5 mmHg | - | - | - | - |
| 1788142157 | 57° F | 78% | 599.8 mmHg | - | - | - | - |
| 1788140962 | 57° F | 76% | 599.4 mmHg | - | - | - | - |
| 1788138567 | 60° F | 67% | 599.5 mmHg | - | - | - | - |
| 1788101175 | 75° F | 48% | 609.6 mmHg | - | - | - | - |
| 1788099986 | 75° F | 49% | 609.6 mmHg | - | - | - | - |
| 1788098783 | 75° F | 49% | 609.4 mmHg | - | - | - | - |
| 1788097586 | 75° F | 49% | 609.4 mmHg | - | - | - | - |
| 1788096391 | 74° F | 49% | 609.4 mmHg | - | - | - | - |
| 1788095328 | 74° F | 49% | 609.4 mmHg | - | - | - | - |
| 1788095196 | 74° F | 49% | 609.4 mmHg | - | - | - | - |
| 1788094008 | 74° F | 49% | 609.1 mmHg | - | - | - | - |
| 1788092805 | 75° F | 49% | 609 mmHg | - | - | - | - |
| 1788091610 | 75° F | 48% | 608.9 mmHg | - | - | - | - |
| 1788090419 | 75° F | 48% | 608.7 mmHg | - | - | - | - |
| 1788089335 | 75° F | 47% | 608.7 mmHg | - | - | - | - |
| 1788089217 | 75° F | 47% | 608.7 mmHg | - | - | - | - |
| 1788088028 | 75° F | 47% | 608.5 mmHg | - | - | - | - |
* Rain since midnight (hover to see other rain measurements)
** Current wind speed in m/s (hover to see current wind gust speed)